Aviation Digital Data Service (ADDS)

Output produced by METARs form (0859 UTC 24 March 2019)
found at http://www.aviationweather.gov/metar/data/
 
METAR text: YMML 240830Z 34017KT 9999 FEW040 SCT050 BKN250 25/14 Q1002 INTER 0900/1130 VRB30G45KT 3000 TSRA BKN020 SCT050CB FM0830 MOD/SEV TURB BLW 5000FT
Conditions at: YMML (MELBOURNE INTL A, AU) observed 0830 UTC 24 March 2019
Temperature: 25.0°C (77°F)
Dewpoint: 14.0°C (57°F) [RH = 50%]
Pressure (altimeter): 29.59 inches Hg (1002.0 mb)
Winds: from the NNW (340 degrees) at 20 MPH (17 knots; 8.7 m/s)
Visibility: 6 or more miles (10+ km)
Ceiling: 25000 feet AGL
Clouds: few clouds at 4000 feet AGL
scattered clouds at 5000 feet AGL
broken clouds at 25000 feet AGL
Weather: no significant weather observed at this time

METAR text: YMML 240819Z 33017G27KT 9999 FEW040 SCT053 BKN250 25/14 Q1002 INTER 0900/1119 VRB30G45KT 3000 TSRA BKN020 SCT050CB FM0819 MOD/SEV TURB BLW 5000FT
Conditions at: YMML (MELBOURNE INTL A, AU) observed 0819 UTC 24 March 2019
Temperature: 25.0°C (77°F)
Dewpoint: 14.0°C (57°F) [RH = 50%]
Pressure (altimeter): 29.59 inches Hg (1002.0 mb)
Winds: from the NNW (330 degrees) at 20 MPH (17 knots; 8.7 m/s)
gusting to 31 MPH (27 knots; 13.9 m/s)
Visibility: 6 or more miles (10+ km)
Ceiling: 25000 feet AGL
Clouds: few clouds at 4000 feet AGL
scattered clouds at 5300 feet AGL
broken clouds at 25000 feet AGL
Weather: no significant weather observed at this time

METAR text: YMML 240800Z 35017KT 9999 -SHRA FEW040 SCT053 BKN130 FEW060CB 26/14 Q1002 INTER 0830/1100 VRB30G45KT 3000 TSRA BKN020 SCT050CB FM0800 MOD/SEV TURB BLW 5000FT
Conditions at: YMML (MELBOURNE INTL A, AU) observed 0800 UTC 24 March 2019
Temperature: 26.0°C (79°F)
Dewpoint: 14.0°C (57°F) [RH = 48%]
Pressure (altimeter): 29.59 inches Hg (1002.0 mb)
Winds: from the N (350 degrees) at 20 MPH (17 knots; 8.7 m/s)
Visibility: 6 or more miles (10+ km)
Ceiling: 13000 feet AGL
Clouds: few clouds at 4000 feet AGL
scattered clouds at 5300 feet AGL
broken clouds at 13000 feet AGL
few clouds at 6000 feet AGL
Weather: -SHRA  (light rain showers)

METAR text: YMML 240753Z 35018G28KT 9999 -SHRA FEW030 SCT053 BKN290 FEW060CB 26/14 Q1002 INTER 0753/1053 VRB30G45KT 3000 TSRA BKN020 SCT050CB FM0753 MOD TURB BLW 5000FT TILL 0800 FM0800 MOD/SEV TURB BLW 5000FT
Conditions at: YMML (MELBOURNE INTL A, AU) observed 0753 UTC 24 March 2019
Temperature: 26.0°C (79°F)
Dewpoint: 14.0°C (57°F) [RH = 48%]
Pressure (altimeter): 29.59 inches Hg (1002.0 mb)
Winds: from the N (350 degrees) at 21 MPH (18 knots; 9.3 m/s)
gusting to 32 MPH (28 knots; 14.4 m/s)
Visibility: 6 or more miles (10+ km)
Ceiling: 29000 feet AGL
Clouds: few clouds at 3000 feet AGL
scattered clouds at 5300 feet AGL
broken clouds at 29000 feet AGL
few clouds at 6000 feet AGL
Weather: -SHRA  (light rain showers)

METAR text: YMML 240730Z 35022KT 9999 -SHRA FEW020 SCT060CB OVC290 26/14 Q1002 INTER 0730/1030 VRB30G45KT 3000 TSRA BKN020 SCT050CB FM0730 MOD TURB BLW 5000FT TILL 0800 FM0800 MOD/SEV TURB BLW 5000FT
Conditions at: YMML (MELBOURNE INTL A, AU) observed 0730 UTC 24 March 2019
Temperature: 26.0°C (79°F)
Dewpoint: 14.0°C (57°F) [RH = 48%]
Pressure (altimeter): 29.59 inches Hg (1002.0 mb)
Winds: from the N (350 degrees) at 25 MPH (22 knots; 11.3 m/s)
Visibility: 6 or more miles (10+ km)
Ceiling: 29000 feet AGL
Clouds: few clouds at 2000 feet AGL
scattered clouds at 6000 feet AGL
overcast cloud deck at 29000 feet AGL
Weather: -SHRA  (light rain showers)

METAR text: YMML 240725Z 34019G29KT 9999 -SHRA FEW020 SCT060CB OVC290 26/13 Q1002 INTER 0725/1025 VRB30G45KT 5000 -TSRA SCT025 SCT050CB FM0725 MOD TURB BLW 5000FT TILL 0800 FM0800 MOD/SEV TURB BLW 5000FT
Conditions at: YMML (MELBOURNE INTL A, AU) observed 0725 UTC 24 March 2019
Temperature: 26.0°C (79°F)
Dewpoint: 13.0°C (55°F) [RH = 45%]
Pressure (altimeter): 29.59 inches Hg (1002.0 mb)
Winds: from the NNW (340 degrees) at 22 MPH (19 knots; 9.8 m/s)
gusting to 33 MPH (29 knots; 14.9 m/s)
Visibility: 6 or more miles (10+ km)
Ceiling: 29000 feet AGL
Clouds: few clouds at 2000 feet AGL
scattered clouds at 6000 feet AGL
overcast cloud deck at 29000 feet AGL
Weather: -SHRA  (light rain showers)

METAR text: YMML 240700Z 35019KT 9999 VCSH FEW055 SCT060CB BKN290 26/13 Q1002 INTER 0700/1000 VRB30G45KT 5000 -TSRA SCT025 SCT050CB FM0700 MOD TURB BLW 5000FT TILL 0800 FM0800 MOD/SEV TURB BLW 5000FT
Conditions at: YMML (MELBOURNE INTL A, AU) observed 0700 UTC 24 March 2019
Temperature: 26.0°C (79°F)
Dewpoint: 13.0°C (55°F) [RH = 45%]
Pressure (altimeter): 29.59 inches Hg (1002.0 mb)
Winds: from the N (350 degrees) at 22 MPH (19 knots; 9.8 m/s)
Visibility: 6 or more miles (10+ km)
Ceiling: 29000 feet AGL
Clouds: few clouds at 5500 feet AGL
scattered clouds at 6000 feet AGL
broken clouds at 29000 feet AGL
Weather: VCSH  (showers in vicinity)

METAR text: YMML 240638Z 36019G29KT 9999 FEW055CB BKN260 27/13 Q1003 INTER 0700/0938 VRB30G45KT 5000 -TSRA SCT025 SCT050CB FM0638 MOD TURB BLW 5000FT TILL 0800 FM0800 MOD/SEV TURB BLW 5000FT
Conditions at: YMML (MELBOURNE INTL A, AU) observed 0638 UTC 24 March 2019
Temperature: 27.0°C (81°F)
Dewpoint: 13.0°C (55°F) [RH = 42%]
Pressure (altimeter): 29.62 inches Hg (1003.0 mb)
Winds: from the N (360 degrees) at 22 MPH (19 knots; 9.8 m/s)
gusting to 33 MPH (29 knots; 14.9 m/s)
Visibility: 6 or more miles (10+ km)
Ceiling: 26000 feet AGL
Clouds: few clouds at 5500 feet AGL
broken clouds at 26000 feet AGL
Weather: no significant weather observed at this time

METAR text: YMML 240630Z 36023KT 9999 FEW055CB BKN260 27/13 Q1003 INTER 0700/0930 5000 -TSRA SCT025 SCT050CB FM0630 MOD TURB BLW 5000FT TILL 0800 FM0800 MOD/SEV TURB BLW 5000FT
Conditions at: YMML (MELBOURNE INTL A, AU) observed 0630 UTC 24 March 2019
Temperature: 27.0°C (81°F)
Dewpoint: 13.0°C (55°F) [RH = 42%]
Pressure (altimeter): 29.62 inches Hg (1003.0 mb)
Winds: from the N (360 degrees) at 26 MPH (23 knots; 11.8 m/s)
Visibility: 6 or more miles (10+ km)
Ceiling: 26000 feet AGL
Clouds: few clouds at 5500 feet AGL
broken clouds at 26000 feet AGL
Weather: no significant weather observed at this time

METAR text: YMML 240607Z 35022G32KT CAVOK 27/12 Q1003 FM0607 MOD TURB BLW 5000FT TILL 0800 FM0800 MOD/SEV TURB BLW 5000FT
Conditions at: YMML (MELBOURNE INTL A, AU) observed 0607 UTC 24 March 2019
Temperature: 27.0°C (81°F)
Dewpoint: 12.0°C (54°F) [RH = 39%]
Pressure (altimeter): 29.62 inches Hg (1003.0 mb)
Winds: from the N (350 degrees) at 25 MPH (22 knots; 11.3 m/s)
gusting to 37 MPH (32 knots; 16.5 m/s)
Visibility: 6 or more miles (10+ km)
Ceiling: ceiling and visibility are OK
Clouds: unknown
Weather: no significant weather observed at this time

METAR text: YMML 240600Z 36023KT CAVOK 27/12 Q1003 FM0600 MOD TURB BLW 5000FT TILL 0800 FM0800 MOD/SEV TURB BLW 5000FT
Conditions at: YMML (MELBOURNE INTL A, AU) observed 0600 UTC 24 March 2019
Temperature: 27.0°C (81°F)
Dewpoint: 12.0°C (54°F) [RH = 39%]
Pressure (altimeter): 29.62 inches Hg (1003.0 mb)
Winds: from the N (360 degrees) at 26 MPH (23 knots; 11.8 m/s)
Visibility: 6 or more miles (10+ km)
Ceiling: ceiling and visibility are OK
Clouds: unknown
Weather: no significant weather observed at this time

METAR text: YMML 240530Z 36025KT CAVOK 27/12 Q1004 FM0530 MOD TURB BLW 5000FT TILL 0800 FM0800 MOD/SEV TURB BLW 5000FT
Conditions at: YMML (MELBOURNE INTL A, AU) observed 0530 UTC 24 March 2019
Temperature: 27.0°C (81°F)
Dewpoint: 12.0°C (54°F) [RH = 39%]
Pressure (altimeter): 29.65 inches Hg (1004.0 mb)
Winds: from the N (360 degrees) at 29 MPH (25 knots; 12.9 m/s)
Visibility: 6 or more miles (10+ km)
Ceiling: ceiling and visibility are OK
Clouds: unknown
Weather: no significant weather observed at this time

METAR text: YMML 240523Z 35024G34KT CAVOK 27/12 Q1004 FM0523 MOD TURB BLW 5000FT TILL 0800 FM0800 MOD/SEV TURB BLW 5000FT
Conditions at: YMML (MELBOURNE INTL A, AU) observed 0523 UTC 24 March 2019
Temperature: 27.0°C (81°F)
Dewpoint: 12.0°C (54°F) [RH = 39%]
Pressure (altimeter): 29.65 inches Hg (1004.0 mb)
Winds: from the N (350 degrees) at 28 MPH (24 knots; 12.3 m/s)
gusting to 39 MPH (34 knots; 17.5 m/s)
Visibility: 6 or more miles (10+ km)
Ceiling: ceiling and visibility are OK
Clouds: unknown
Weather: no significant weather observed at this time

METAR text: YMML 240500Z 36023KT CAVOK 27/11 Q1004 FM0500 MOD TURB BLW 5000FT
Conditions at: YMML (MELBOURNE INTL A, AU) observed 0500 UTC 24 March 2019
Temperature: 27.0°C (81°F)
Dewpoint: 11.0°C (52°F) [RH = 37%]
Pressure (altimeter): 29.65 inches Hg (1004.0 mb)
Winds: from the N (360 degrees) at 26 MPH (23 knots; 11.8 m/s)
Visibility: 6 or more miles (10+ km)
Ceiling: ceiling and visibility are OK
Clouds: unknown
Weather: no significant weather observed at this time

METAR text: YMML 240441Z 01024G34KT CAVOK 27/11 Q1004 FM0441 MOD TURB BLW 5000FT
Conditions at: YMML (MELBOURNE INTL A, AU) observed 0441 UTC 24 March 2019
Temperature: 27.0°C (81°F)
Dewpoint: 11.0°C (52°F) [RH = 37%]
Pressure (altimeter): 29.65 inches Hg (1004.0 mb)
Winds: from the N (10 degrees) at 28 MPH (24 knots; 12.3 m/s)
gusting to 39 MPH (34 knots; 17.5 m/s)
Visibility: 6 or more miles (10+ km)
Ceiling: ceiling and visibility are OK
Clouds: unknown
Weather: no significant weather observed at this time

METAR text: YMML 240430Z 01024KT CAVOK 28/10 Q1004 FM0430 MOD TURB BLW 5000FT
Conditions at: YMML (MELBOURNE INTL A, AU) observed 0430 UTC 24 March 2019
Temperature: 28.0°C (82°F)
Dewpoint: 10.0°C (50°F) [RH = 32%]
Pressure (altimeter): 29.65 inches Hg (1004.0 mb)
Winds: from the N (10 degrees) at 28 MPH (24 knots; 12.3 m/s)
Visibility: 6 or more miles (10+ km)
Ceiling: ceiling and visibility are OK
Clouds: unknown
Weather: no significant weather observed at this time

METAR text: YMML 240400Z 35023G33KT CAVOK 29/09 Q1004 FM0400 MOD TURB BLW 5000FT
Conditions at: YMML (MELBOURNE INTL A, AU) observed 0400 UTC 24 March 2019
Temperature: 29.0°C (84°F)
Dewpoint: 9.0°C (48°F) [RH = 29%]
Pressure (altimeter): 29.65 inches Hg (1004.0 mb)
Winds: from the N (350 degrees) at 26 MPH (23 knots; 11.8 m/s)
gusting to 38 MPH (33 knots; 17.0 m/s)
Visibility: 6 or more miles (10+ km)
Ceiling: ceiling and visibility are OK
Clouds: unknown
Weather: no significant weather observed at this time

METAR text: YMML 240350Z 36021G32KT CAVOK 30/10 Q1004 FM0400 MOD TURB BLW 5000FT
Conditions at: YMML (MELBOURNE INTL A, AU) observed 0350 UTC 24 March 2019
Temperature: 30.0°C (86°F)
Dewpoint: 10.0°C (50°F) [RH = 29%]
Pressure (altimeter): 29.65 inches Hg (1004.0 mb)
Winds: from the N (360 degrees) at 24 MPH (21 knots; 10.8 m/s)
gusting to 37 MPH (32 knots; 16.5 m/s)
Visibility: 6 or more miles (10+ km)
Ceiling: ceiling and visibility are OK
Clouds: unknown
Weather: no significant weather observed at this time

METAR text: YMML 240330Z 35019KT CAVOK 31/09 Q1005 FM0400 MOD TURB BLW 5000FT
Conditions at: YMML (MELBOURNE INTL A, AU) observed 0330 UTC 24 March 2019
Temperature: 31.0°C (88°F)
Dewpoint: 9.0°C (48°F) [RH = 26%]
Pressure (altimeter): 29.68 inches Hg (1005.0 mb)
Winds: from the N (350 degrees) at 22 MPH (19 knots; 9.8 m/s)
Visibility: 6 or more miles (10+ km)
Ceiling: ceiling and visibility are OK
Clouds: unknown
Weather: no significant weather observed at this time

METAR text: YMML 240300Z 36019KT CAVOK 29/09 Q1005 FM0400 MOD TURB BLW 5000FT
Conditions at: YMML (MELBOURNE INTL A, AU) observed 0300 UTC 24 March 2019
Temperature: 29.0°C (84°F)
Dewpoint: 9.0°C (48°F) [RH = 29%]
Pressure (altimeter): 29.68 inches Hg (1005.0 mb)
Winds: from the N (360 degrees) at 22 MPH (19 knots; 9.8 m/s)
Visibility: 6 or more miles (10+ km)
Ceiling: ceiling and visibility are OK
Clouds: unknown
Weather: no significant weather observed at this time

METAR text: YMML 240244Z 35020G30KT CAVOK 29/09 Q1006 FM0400 MOD TURB BLW 5000FT
Conditions at: YMML (MELBOURNE INTL A, AU) observed 0244 UTC 24 March 2019
Temperature: 29.0°C (84°F)
Dewpoint: 9.0°C (48°F) [RH = 29%]
Pressure (altimeter): 29.70 inches Hg (1006.0 mb)
Winds: from the N (350 degrees) at 23 MPH (20 knots; 10.3 m/s)
gusting to 34 MPH (30 knots; 15.4 m/s)
Visibility: 6 or more miles (10+ km)
Ceiling: ceiling and visibility are OK
Clouds: unknown
Weather: no significant weather observed at this time

METAR text: YMML 240230Z 36020KT CAVOK 29/09 Q1006 FM0400 MOD TURB BLW 5000FT
Conditions at: YMML (MELBOURNE INTL A, AU) observed 0230 UTC 24 March 2019
Temperature: 29.0°C (84°F)
Dewpoint: 9.0°C (48°F) [RH = 29%]
Pressure (altimeter): 29.70 inches Hg (1006.0 mb)
Winds: from the N (360 degrees) at 23 MPH (20 knots; 10.3 m/s)
Visibility: 6 or more miles (10+ km)
Ceiling: ceiling and visibility are OK
Clouds: unknown
Weather: no significant weather observed at this time

METAR text: YMML 240200Z 35019KT CAVOK 28/09 Q1007 FM0400 MOD TURB BLW 5000FT
Conditions at: YMML (MELBOURNE INTL A, AU) observed 0200 UTC 24 March 2019
Temperature: 28.0°C (82°F)
Dewpoint: 9.0°C (48°F) [RH = 30%]
Pressure (altimeter): 29.73 inches Hg (1007.0 mb)
Winds: from the N (350 degrees) at 22 MPH (19 knots; 9.8 m/s)
Visibility: 6 or more miles (10+ km)
Ceiling: ceiling and visibility are OK
Clouds: unknown
Weather: no significant weather observed at this time

METAR text: YMML 240136Z 36018G28KT CAVOK 28/10 Q1007 FM0400 MOD TURB BLW 5000FT
Conditions at: YMML (MELBOURNE INTL A, AU) observed 0136 UTC 24 March 2019
Temperature: 28.0°C (82°F)
Dewpoint: 10.0°C (50°F) [RH = 32%]
Pressure (altimeter): 29.73 inches Hg (1007.0 mb)
Winds: from the N (360 degrees) at 21 MPH (18 knots; 9.3 m/s)
gusting to 32 MPH (28 knots; 14.4 m/s)
Visibility: 6 or more miles (10+ km)
Ceiling: ceiling and visibility are OK
Clouds: unknown
Weather: no significant weather observed at this time

METAR text: YMML 240130Z 01018KT 9999 FEW049 27/10 Q1007 FM0400 MOD TURB BLW 5000FT
Conditions at: YMML (MELBOURNE INTL A, AU) observed 0130 UTC 24 March 2019
Temperature: 27.0°C (81°F)
Dewpoint: 10.0°C (50°F) [RH = 34%]
Pressure (altimeter): 29.73 inches Hg (1007.0 mb)
Winds: from the N (10 degrees) at 21 MPH (18 knots; 9.3 m/s)
Visibility: 6 or more miles (10+ km)
Ceiling: at least 12,000 feet AGL
Clouds: few clouds at 4900 feet AGL
Weather: no significant weather observed at this time

METAR text: YMML 240100Z 01013KT 9999 FEW045 27/11 Q1008 FM0200 35018G32KT CAVOK
Conditions at: YMML (MELBOURNE INTL A, AU) observed 0100 UTC 24 March 2019
Temperature: 27.0°C (81°F)
Dewpoint: 11.0°C (52°F) [RH = 37%]
Pressure (altimeter): 29.76 inches Hg (1008.0 mb)
Winds: from the N (10 degrees) at 15 MPH (13 knots; 6.7 m/s)
Visibility: 6 or more miles (10+ km)
Ceiling: at least 12,000 feet AGL
Clouds: few clouds at 4500 feet AGL
Weather: no significant weather observed at this time

METAR text: YMML 240030Z 36015KT 9999 FEW037 26/11 Q1009 FM0200 35018G32KT CAVOK
Conditions at: YMML (MELBOURNE INTL A, AU) observed 0030 UTC 24 March 2019
Temperature: 26.0°C (79°F)
Dewpoint: 11.0°C (52°F) [RH = 39%]
Pressure (altimeter): 29.79 inches Hg (1009.0 mb)
Winds: from the N (360 degrees) at 17 MPH (15 knots; 7.7 m/s)
Visibility: 6 or more miles (10+ km)
Ceiling: at least 12,000 feet AGL
Clouds: few clouds at 3700 feet AGL
Weather: no significant weather observed at this time

METAR text: YMML 240000Z 36014KT 9999 FEW032 25/12 Q1009 FM0200 35018G32KT CAVOK
Conditions at: YMML (MELBOURNE INTL A, AU) observed 0000 UTC 24 March 2019
Temperature: 25.0°C (77°F)
Dewpoint: 12.0°C (54°F) [RH = 44%]
Pressure (altimeter): 29.79 inches Hg (1009.0 mb)
Winds: from the N (360 degrees) at 16 MPH (14 knots; 7.2 m/s)
Visibility: 6 or more miles (10+ km)
Ceiling: at least 12,000 feet AGL
Clouds: few clouds at 3200 feet AGL
Weather: no significant weather observed at this time

METAR text: YMML 232330Z 01014KT 9999 FEW030 24/14 Q1010 FM0200 35018G32KT CAVOK
Conditions at: YMML (MELBOURNE INTL A, AU) observed 2330 UTC 23 March 2019
Temperature: 24.0°C (75°F)
Dewpoint: 14.0°C (57°F) [RH = 54%]
Pressure (altimeter): 29.82 inches Hg (1010.0 mb)
Winds: from the N (10 degrees) at 16 MPH (14 knots; 7.2 m/s)
Visibility: 6 or more miles (10+ km)
Ceiling: at least 12,000 feet AGL
Clouds: few clouds at 3000 feet AGL
Weather: no significant weather observed at this time

METAR text: YMML 232300Z 01010KT CAVOK 22/14 Q1010
Conditions at: YMML (MELBOURNE INTL A, AU) observed 2300 UTC 23 March 2019
Temperature: 22.0°C (72°F)
Dewpoint: 14.0°C (57°F) [RH = 60%]
Pressure (altimeter): 29.82 inches Hg (1010.0 mb)
Winds: from the N (10 degrees) at 12 MPH (10 knots; 5.1 m/s)
Visibility: 6 or more miles (10+ km)
Ceiling: ceiling and visibility are OK
Clouds: unknown
Weather: no significant weather observed at this time

METAR text: YMML 232230Z 36010KT CAVOK 21/14 Q1011 NOSIG
Conditions at: YMML (MELBOURNE INTL A, AU) observed 2230 UTC 23 March 2019
Temperature: 21.0°C (70°F)
Dewpoint: 14.0°C (57°F) [RH = 64%]
Pressure (altimeter): 29.85 inches Hg (1011.0 mb)
Winds: from the N (360 degrees) at 12 MPH (10 knots; 5.1 m/s)
Visibility: 6 or more miles (10+ km)
Ceiling: ceiling and visibility are OK
Clouds: unknown
Weather: no significant weather observed at this time

METAR text: YMML 232200Z 36011KT CAVOK 18/14 Q1011
Conditions at: YMML (MELBOURNE INTL A, AU) observed 2200 UTC 23 March 2019
Temperature: 18.0°C (64°F)
Dewpoint: 14.0°C (57°F) [RH = 77%]
Pressure (altimeter): 29.85 inches Hg (1011.0 mb)
Winds: from the N (360 degrees) at 13 MPH (11 knots; 5.7 m/s)
Visibility: 6 or more miles (10+ km)
Ceiling: ceiling and visibility are OK
Clouds: unknown
Weather: no significant weather observed at this time

METAR text: YMML 232130Z 36009KT CAVOK 17/15 Q1011 NOSIG
Conditions at: YMML (MELBOURNE INTL A, AU) observed 2130 UTC 23 March 2019
Temperature: 17.0°C (63°F)
Dewpoint: 15.0°C (59°F) [RH = 88%]
Pressure (altimeter): 29.85 inches Hg (1011.0 mb)
Winds: from the N (360 degrees) at 10 MPH (9 knots; 4.6 m/s)
Visibility: 6 or more miles (10+ km)
Ceiling: ceiling and visibility are OK
Clouds: unknown
Weather: no significant weather observed at this time

METAR text: YMML 232100Z 01009KT CAVOK 15/14 Q1011
Conditions at: YMML (MELBOURNE INTL A, AU) observed 2100 UTC 23 March 2019
Temperature: 15.0°C (59°F)
Dewpoint: 14.0°C (57°F) [RH = 94%]
Pressure (altimeter): 29.85 inches Hg (1011.0 mb)
Winds: from the N (10 degrees) at 10 MPH (9 knots; 4.6 m/s)
Visibility: 6 or more miles (10+ km)
Ceiling: ceiling and visibility are OK
Clouds: unknown
Weather: no significant weather observed at this time

METAR text: YMML 232030Z 36004KT CAVOK 15/14 Q1011 NOSIG
Conditions at: YMML (MELBOURNE INTL A, AU) observed 2030 UTC 23 March 2019
Temperature: 15.0°C (59°F)
Dewpoint: 14.0°C (57°F) [RH = 94%]
Pressure (altimeter): 29.85 inches Hg (1011.0 mb)
Winds: from the N (360 degrees) at 5 MPH (4 knots; 2.1 m/s)
Visibility: 6 or more miles (10+ km)
Ceiling: ceiling and visibility are OK
Clouds: unknown
Weather: no significant weather observed at this time

METAR text: YMML 232000Z 34004KT CAVOK 15/14 Q1011
Conditions at: YMML (MELBOURNE INTL A, AU) observed 2000 UTC 23 March 2019
Temperature: 15.0°C (59°F)
Dewpoint: 14.0°C (57°F) [RH = 94%]
Pressure (altimeter): 29.85 inches Hg (1011.0 mb)
Winds: from the NNW (340 degrees) at 5 MPH (4 knots; 2.1 m/s)
Visibility: 6 or more miles (10+ km)
Ceiling: ceiling and visibility are OK
Clouds: unknown
Weather: no significant weather observed at this time

METAR text: YMML 231930Z 34005KT CAVOK 16/14 Q1011 NOSIG
Conditions at: YMML (MELBOURNE INTL A, AU) observed 1930 UTC 23 March 2019
Temperature: 16.0°C (61°F)
Dewpoint: 14.0°C (57°F) [RH = 88%]
Pressure (altimeter): 29.85 inches Hg (1011.0 mb)
Winds: from the NNW (340 degrees) at 6 MPH (5 knots; 2.6 m/s)
Visibility: 6 or more miles (10+ km)
Ceiling: ceiling and visibility are OK
Clouds: unknown
Weather: no significant weather observed at this time

METAR text: YMML 231900Z 36004KT 9999 FEW035 SCT115 BKN260 16/14 Q1010
Conditions at: YMML (MELBOURNE INTL A, AU) observed 1900 UTC 23 March 2019
Temperature: 16.0°C (61°F)
Dewpoint: 14.0°C (57°F) [RH = 88%]
Pressure (altimeter): 29.82 inches Hg (1010.0 mb)
Winds: from the N (360 degrees) at 5 MPH (4 knots; 2.1 m/s)
Visibility: 6 or more miles (10+ km)
Ceiling: 26000 feet AGL
Clouds: few clouds at 3500 feet AGL
scattered clouds at 11500 feet AGL
broken clouds at 26000 feet AGL
Weather: no significant weather observed at this time

METAR text: YMML 231830Z 04001KT 9999 FEW035 SCT160 BKN215 17/14 Q1010 NOSIG
Conditions at: YMML (MELBOURNE INTL A, AU) observed 1830 UTC 23 March 2019
Temperature: 17.0°C (63°F)
Dewpoint: 14.0°C (57°F) [RH = 82%]
Pressure (altimeter): 29.82 inches Hg (1010.0 mb)
Winds: from the NE (40 degrees) at 1 MPH (1 knots; 0.5 m/s)
Visibility: 6 or more miles (10+ km)
Ceiling: 21500 feet AGL
Clouds: few clouds at 3500 feet AGL
scattered clouds at 16000 feet AGL
broken clouds at 21500 feet AGL
Weather: no significant weather observed at this time

METAR text: YMML 231800Z 04005KT 9999 FEW035 SCT115 BKN215 18/15 Q1010
Conditions at: YMML (MELBOURNE INTL A, AU) observed 1800 UTC 23 March 2019
Temperature: 18.0°C (64°F)
Dewpoint: 15.0°C (59°F) [RH = 83%]
Pressure (altimeter): 29.82 inches Hg (1010.0 mb)
Winds: from the NE (40 degrees) at 6 MPH (5 knots; 2.6 m/s)
Visibility: 6 or more miles (10+ km)
Ceiling: 21500 feet AGL
Clouds: few clouds at 3500 feet AGL
scattered clouds at 11500 feet AGL
broken clouds at 21500 feet AGL
Weather: no significant weather observed at this time

METAR text: YMML 231730Z 04005KT 9999 FEW032 SCT125 BKN145 18/15 Q1010 NOSIG
Conditions at: YMML (MELBOURNE INTL A, AU) observed 1730 UTC 23 March 2019
Temperature: 18.0°C (64°F)
Dewpoint: 15.0°C (59°F) [RH = 83%]
Pressure (altimeter): 29.82 inches Hg (1010.0 mb)
Winds: from the NE (40 degrees) at 6 MPH (5 knots; 2.6 m/s)
Visibility: 6 or more miles (10+ km)
Ceiling: 14500 feet AGL
Clouds: few clouds at 3200 feet AGL
scattered clouds at 12500 feet AGL
broken clouds at 14500 feet AGL
Weather: no significant weather observed at this time

METAR text: YMML 231700Z 05006KT 9999 FEW030 BKN125 BKN165 18/15 Q1010
Conditions at: YMML (MELBOURNE INTL A, AU) observed 1700 UTC 23 March 2019
Temperature: 18.0°C (64°F)
Dewpoint: 15.0°C (59°F) [RH = 83%]
Pressure (altimeter): 29.82 inches Hg (1010.0 mb)
Winds: from the NE (50 degrees) at 7 MPH (6 knots; 3.1 m/s)
Visibility: 6 or more miles (10+ km)
Ceiling: 12500 feet AGL
Clouds: few clouds at 3000 feet AGL
broken clouds at 12500 feet AGL
broken clouds at 16500 feet AGL
Weather: no significant weather observed at this time

METAR text: YMML 231630Z 07005KT 9999 FEW030 SCT115 BKN175 18/15 Q1010 NOSIG
Conditions at: YMML (MELBOURNE INTL A, AU) observed 1630 UTC 23 March 2019
Temperature: 18.0°C (64°F)
Dewpoint: 15.0°C (59°F) [RH = 83%]
Pressure (altimeter): 29.82 inches Hg (1010.0 mb)
Winds: from the ENE (70 degrees) at 6 MPH (5 knots; 2.6 m/s)
Visibility: 6 or more miles (10+ km)
Ceiling: 17500 feet AGL
Clouds: few clouds at 3000 feet AGL
scattered clouds at 11500 feet AGL
broken clouds at 17500 feet AGL
Weather: no significant weather observed at this time

METAR text: YMML 231600Z 08006KT 9999 FEW018 SCT145 BKN210 18/15 Q1011
Conditions at: YMML (MELBOURNE INTL A, AU) observed 1600 UTC 23 March 2019
Temperature: 18.0°C (64°F)
Dewpoint: 15.0°C (59°F) [RH = 83%]
Pressure (altimeter): 29.85 inches Hg (1011.0 mb)
Winds: from the E (80 degrees) at 7 MPH (6 knots; 3.1 m/s)
Visibility: 6 or more miles (10+ km)
Ceiling: 21000 feet AGL
Clouds: few clouds at 1800 feet AGL
scattered clouds at 14500 feet AGL
broken clouds at 21000 feet AGL
Weather: no significant weather observed at this time

METAR text: YMML 231530Z 05004KT 9999 FEW016 SCT030 BKN125 18/16 Q1011 NOSIG
Conditions at: YMML (MELBOURNE INTL A, AU) observed 1530 UTC 23 March 2019
Temperature: 18.0°C (64°F)
Dewpoint: 16.0°C (61°F) [RH = 88%]
Pressure (altimeter): 29.85 inches Hg (1011.0 mb)
Winds: from the NE (50 degrees) at 5 MPH (4 knots; 2.1 m/s)
Visibility: 6 or more miles (10+ km)
Ceiling: 12500 feet AGL
Clouds: few clouds at 1600 feet AGL
scattered clouds at 3000 feet AGL
broken clouds at 12500 feet AGL
Weather: no significant weather observed at this time

METAR text: YMML 231500Z 14004KT 9999 SCT030 SCT125 BKN145 18/15 Q1011
Conditions at: YMML (MELBOURNE INTL A, AU) observed 1500 UTC 23 March 2019
Temperature: 18.0°C (64°F)
Dewpoint: 15.0°C (59°F) [RH = 83%]
Pressure (altimeter): 29.85 inches Hg (1011.0 mb)
Winds: from the SE (140 degrees) at 5 MPH (4 knots; 2.1 m/s)
Visibility: 6 or more miles (10+ km)
Ceiling: 14500 feet AGL
Clouds: scattered clouds at 3000 feet AGL
scattered clouds at 12500 feet AGL
broken clouds at 14500 feet AGL
Weather: no significant weather observed at this time

METAR text: YMML 231430Z 15006KT 9999 SCT028 BKN195 19/16 Q1012 NOSIG
Conditions at: YMML (MELBOURNE INTL A, AU) observed 1430 UTC 23 March 2019
Temperature: 19.0°C (66°F)
Dewpoint: 16.0°C (61°F) [RH = 83%]
Pressure (altimeter): 29.88 inches Hg (1012.0 mb)
Winds: from the SSE (150 degrees) at 7 MPH (6 knots; 3.1 m/s)
Visibility: 6 or more miles (10+ km)
Ceiling: 19500 feet AGL
Clouds: scattered clouds at 2800 feet AGL
broken clouds at 19500 feet AGL
Weather: no significant weather observed at this time

METAR text: YMML 231400Z 15005KT 9999 FEW020 SCT025 BKN195 18/16 Q1011
Conditions at: YMML (MELBOURNE INTL A, AU) observed 1400 UTC 23 March 2019
Temperature: 18.0°C (64°F)
Dewpoint: 16.0°C (61°F) [RH = 88%]
Pressure (altimeter): 29.85 inches Hg (1011.0 mb)
Winds: from the SSE (150 degrees) at 6 MPH (5 knots; 2.6 m/s)
Visibility: 6 or more miles (10+ km)
Ceiling: 19500 feet AGL
Clouds: few clouds at 2000 feet AGL
scattered clouds at 2500 feet AGL
broken clouds at 19500 feet AGL
Weather: no significant weather observed at this time

METAR text: YMML 231330Z 16006KT 9999 BKN019 BKN025 19/16 Q1011 NOSIG
Conditions at: YMML (MELBOURNE INTL A, AU) observed 1330 UTC 23 March 2019
Temperature: 19.0°C (66°F)
Dewpoint: 16.0°C (61°F) [RH = 83%]
Pressure (altimeter): 29.85 inches Hg (1011.0 mb)
Winds: from the SSE (160 degrees) at 7 MPH (6 knots; 3.1 m/s)
Visibility: 6 or more miles (10+ km)
Ceiling: 1900 feet AGL
Clouds: broken clouds at 1900 feet AGL
broken clouds at 2500 feet AGL
Weather: no significant weather observed at this time

METAR text: YMML 231300Z 16008KT 9999 BKN019 BKN025 19/15 Q1012
Conditions at: YMML (MELBOURNE INTL A, AU) observed 1300 UTC 23 March 2019
Temperature: 19.0°C (66°F)
Dewpoint: 15.0°C (59°F) [RH = 78%]
Pressure (altimeter): 29.88 inches Hg (1012.0 mb)
Winds: from the SSE (160 degrees) at 9 MPH (8 knots; 4.1 m/s)
Visibility: 6 or more miles (10+ km)
Ceiling: 1900 feet AGL
Clouds: broken clouds at 1900 feet AGL
broken clouds at 2500 feet AGL
Weather: no significant weather observed at this time

METAR text: YMML 231230Z 13006KT 9999 SCT022 BKN185 BKN220 19/15 Q1011 NOSIG
Conditions at: YMML (MELBOURNE INTL A, AU) observed 1230 UTC 23 March 2019
Temperature: 19.0°C (66°F)
Dewpoint: 15.0°C (59°F) [RH = 78%]
Pressure (altimeter): 29.85 inches Hg (1011.0 mb)
Winds: from the SE (130 degrees) at 7 MPH (6 knots; 3.1 m/s)
Visibility: 6 or more miles (10+ km)
Ceiling: 18500 feet AGL
Clouds: scattered clouds at 2200 feet AGL
broken clouds at 18500 feet AGL
broken clouds at 22000 feet AGL
Weather: no significant weather observed at this time

METAR text: YMML 231200Z 11006KT 9999 SCT020 BKN210 19/15 Q1011
Conditions at: YMML (MELBOURNE INTL A, AU) observed 1200 UTC 23 March 2019
Temperature: 19.0°C (66°F)
Dewpoint: 15.0°C (59°F) [RH = 78%]
Pressure (altimeter): 29.85 inches Hg (1011.0 mb)
Winds: from the ESE (110 degrees) at 7 MPH (6 knots; 3.1 m/s)
Visibility: 6 or more miles (10+ km)
Ceiling: 21000 feet AGL
Clouds: scattered clouds at 2000 feet AGL
broken clouds at 21000 feet AGL
Weather: no significant weather observed at this time

METAR text: YMML 231130Z 07005KT 9999 SCT020 SCT215 BKN245 19/16 Q1011 FM1200 15007KT 9999 FEW015 BKN025
Conditions at: YMML (MELBOURNE INTL A, AU) observed 1130 UTC 23 March 2019
Temperature: 19.0°C (66°F)
Dewpoint: 16.0°C (61°F) [RH = 83%]
Pressure (altimeter): 29.85 inches Hg (1011.0 mb)
Winds: from the ENE (70 degrees) at 6 MPH (5 knots; 2.6 m/s)
Visibility: 6 or more miles (10+ km)
Ceiling: 24500 feet AGL
Clouds: scattered clouds at 2000 feet AGL
scattered clouds at 21500 feet AGL
broken clouds at 24500 feet AGL
Weather: no significant weather observed at this time

METAR text: YMML 231100Z 09006KT CAVOK 19/16 Q1011 FM1130 15007KT 9999 SCT025
Conditions at: YMML (MELBOURNE INTL A, AU) observed 1100 UTC 23 March 2019
Temperature: 19.0°C (66°F)
Dewpoint: 16.0°C (61°F) [RH = 83%]
Pressure (altimeter): 29.85 inches Hg (1011.0 mb)
Winds: from the E (90 degrees) at 7 MPH (6 knots; 3.1 m/s)
Visibility: 6 or more miles (10+ km)
Ceiling: ceiling and visibility are OK
Clouds: unknown
Weather: no significant weather observed at this time

METAR text: YMML 231030Z 14009KT CAVOK 19/16 Q1010 NOSIG
Conditions at: YMML (MELBOURNE INTL A, AU) observed 1030 UTC 23 March 2019
Temperature: 19.0°C (66°F)
Dewpoint: 16.0°C (61°F) [RH = 83%]
Pressure (altimeter): 29.82 inches Hg (1010.0 mb)
Winds: from the SE (140 degrees) at 10 MPH (9 knots; 4.6 m/s)
Visibility: 6 or more miles (10+ km)
Ceiling: ceiling and visibility are OK
Clouds: unknown
Weather: no significant weather observed at this time

METAR text: YMML 231000Z 14008KT CAVOK 19/16 Q1010
Conditions at: YMML (MELBOURNE INTL A, AU) observed 1000 UTC 23 March 2019
Temperature: 19.0°C (66°F)
Dewpoint: 16.0°C (61°F) [RH = 83%]
Pressure (altimeter): 29.82 inches Hg (1010.0 mb)
Winds: from the SE (140 degrees) at 9 MPH (8 knots; 4.1 m/s)
Visibility: 6 or more miles (10+ km)
Ceiling: ceiling and visibility are OK
Clouds: unknown
Weather: no significant weather observed at this time

METAR text: YMML 230930Z 16007KT CAVOK 19/16 Q1010 NOSIG
Conditions at: YMML (MELBOURNE INTL A, AU) observed 0930 UTC 23 March 2019
Temperature: 19.0°C (66°F)
Dewpoint: 16.0°C (61°F) [RH = 83%]
Pressure (altimeter): 29.82 inches Hg (1010.0 mb)
Winds: from the SSE (160 degrees) at 8 MPH (7 knots; 3.6 m/s)
Visibility: 6 or more miles (10+ km)
Ceiling: ceiling and visibility are OK
Clouds: unknown
Weather: no significant weather observed at this time

METAR text: YMML 230900Z 15008KT CAVOK 19/16 Q1009
Conditions at: YMML (MELBOURNE INTL A, AU) observed 0900 UTC 23 March 2019
Temperature: 19.0°C (66°F)
Dewpoint: 16.0°C (61°F) [RH = 83%]
Pressure (altimeter): 29.79 inches Hg (1009.0 mb)
Winds: from the SSE (150 degrees) at 9 MPH (8 knots; 4.1 m/s)
Visibility: 6 or more miles (10+ km)
Ceiling: ceiling and visibility are OK
Clouds: unknown
Weather: no significant weather observed at this time

METAR text: YMML 230830Z 17009KT CAVOK 20/16 Q1009 NOSIG
Conditions at: YMML (MELBOURNE INTL A, AU) observed 0830 UTC 23 March 2019
Temperature: 20.0°C (68°F)
Dewpoint: 16.0°C (61°F) [RH = 78%]
Pressure (altimeter): 29.79 inches Hg (1009.0 mb)
Winds: from the S (170 degrees) at 10 MPH (9 knots; 4.6 m/s)
Visibility: 6 or more miles (10+ km)
Ceiling: ceiling and visibility are OK
Clouds: unknown
Weather: no significant weather observed at this time

METAR text: YMML 230800Z 16013KT CAVOK 20/17 Q1008
Conditions at: YMML (MELBOURNE INTL A, AU) observed 0800 UTC 23 March 2019
Temperature: 20.0°C (68°F)
Dewpoint: 17.0°C (63°F) [RH = 83%]
Pressure (altimeter): 29.76 inches Hg (1008.0 mb)
Winds: from the SSE (160 degrees) at 15 MPH (13 knots; 6.7 m/s)
Visibility: 6 or more miles (10+ km)
Ceiling: ceiling and visibility are OK
Clouds: unknown
Weather: no significant weather observed at this time

METAR text: YMML 230730Z 17017KT CAVOK 21/16 Q1006 NOSIG
Conditions at: YMML (MELBOURNE INTL A, AU) observed 0730 UTC 23 March 2019
Temperature: 21.0°C (70°F)
Dewpoint: 16.0°C (61°F) [RH = 73%]
Pressure (altimeter): 29.70 inches Hg (1006.0 mb)
Winds: from the S (170 degrees) at 20 MPH (17 knots; 8.7 m/s)
Visibility: 6 or more miles (10+ km)
Ceiling: ceiling and visibility are OK
Clouds: unknown
Weather: no significant weather observed at this time

METAR text: YMML 230710Z 18013KT CAVOK 25/16 Q1006
Conditions at: YMML (MELBOURNE INTL A, AU) observed 0710 UTC 23 March 2019
Temperature: 25.0°C (77°F)
Dewpoint: 16.0°C (61°F) [RH = 57%]
Pressure (altimeter): 29.70 inches Hg (1006.0 mb)
Winds: from the S (180 degrees) at 15 MPH (13 knots; 6.7 m/s)
Visibility: 6 or more miles (10+ km)
Ceiling: ceiling and visibility are OK
Clouds: unknown
Weather: no significant weather observed at this time

METAR text: YMML 230700Z 35013KT CAVOK 30/12 Q1005 FM0700 20015G25KT 9999 SCT045
Conditions at: YMML (MELBOURNE INTL A, AU) observed 0700 UTC 23 March 2019
Temperature: 30.0°C (86°F)
Dewpoint: 12.0°C (54°F) [RH = 33%]
Pressure (altimeter): 29.68 inches Hg (1005.0 mb)
Winds: from the N (350 degrees) at 15 MPH (13 knots; 6.7 m/s)
Visibility: 6 or more miles (10+ km)
Ceiling: ceiling and visibility are OK
Clouds: unknown
Weather: no significant weather observed at this time

METAR text: YMML 230630Z 36017KT CAVOK 30/12 Q1005 FM0700 22015G25KT 9999 -SHRA SCT045
Conditions at: YMML (MELBOURNE INTL A, AU) observed 0630 UTC 23 March 2019
Temperature: 30.0°C (86°F)
Dewpoint: 12.0°C (54°F) [RH = 33%]
Pressure (altimeter): 29.68 inches Hg (1005.0 mb)
Winds: from the N (360 degrees) at 20 MPH (17 knots; 8.7 m/s)
Visibility: 6 or more miles (10+ km)
Ceiling: ceiling and visibility are OK
Clouds: unknown
Weather: no significant weather observed at this time

METAR text: YMML 230600Z 35017KT CAVOK 30/12 Q1005 FM0645 22015G25KT 9999 -SHRA BKN030
Conditions at: YMML (MELBOURNE INTL A, AU) observed 0600 UTC 23 March 2019
Temperature: 30.0°C (86°F)
Dewpoint: 12.0°C (54°F) [RH = 33%]
Pressure (altimeter): 29.68 inches Hg (1005.0 mb)
Winds: from the N (350 degrees) at 20 MPH (17 knots; 8.7 m/s)
Visibility: 6 or more miles (10+ km)
Ceiling: ceiling and visibility are OK
Clouds: unknown
Weather: no significant weather observed at this time

METAR text: YMML 230535Z 34017G27KT CAVOK 30/12 Q1005 FM0600 34014KT 9999 FEW045 FM0645 22015G25KT 9999 -SHRA BKN030
Conditions at: YMML (MELBOURNE INTL A, AU) observed 0535 UTC 23 March 2019
Temperature: 30.0°C (86°F)
Dewpoint: 12.0°C (54°F) [RH = 33%]
Pressure (altimeter): 29.68 inches Hg (1005.0 mb)
Winds: from the NNW (340 degrees) at 20 MPH (17 knots; 8.7 m/s)
gusting to 31 MPH (27 knots; 13.9 m/s)
Visibility: 6 or more miles (10+ km)
Ceiling: ceiling and visibility are OK
Clouds: unknown
Weather: no significant weather observed at this time

METAR text: YMML 230500Z 34016KT CAVOK 31/11 Q1005 FM0600 34014KT 9999 FEW045 FM0700 22015G25KT 9999 -SHRA BKN030
Conditions at: YMML (MELBOURNE INTL A, AU) observed 0500 UTC 23 March 2019
Temperature: 31.0°C (88°F)
Dewpoint: 11.0°C (52°F) [RH = 29%]
Pressure (altimeter): 29.68 inches Hg (1005.0 mb)
Winds: from the NNW (340 degrees) at 18 MPH (16 knots; 8.2 m/s)
Visibility: 6 or more miles (10+ km)
Ceiling: ceiling and visibility are OK
Clouds: unknown
Weather: no significant weather observed at this time

METAR text: YMML 230439Z 34018G28KT CAVOK 30/11 Q1005 FM0600 35014KT 9999 FEW045 FM0700 22015G25KT 9999 -SHRA BKN030
Conditions at: YMML (MELBOURNE INTL A, AU) observed 0439 UTC 23 March 2019
Temperature: 30.0°C (86°F)
Dewpoint: 11.0°C (52°F) [RH = 31%]
Pressure (altimeter): 29.68 inches Hg (1005.0 mb)
Winds: from the NNW (340 degrees) at 21 MPH (18 knots; 9.3 m/s)
gusting to 32 MPH (28 knots; 14.4 m/s)
Visibility: 6 or more miles (10+ km)
Ceiling: ceiling and visibility are OK
Clouds: unknown
Weather: no significant weather observed at this time

METAR text: YMML 230430Z 36021KT CAVOK 31/12 Q1005 FM0600 35014KT 9999 FEW045 FM0700 22015G25KT 9999 BKN030
Conditions at: YMML (MELBOURNE INTL A, AU) observed 0430 UTC 23 March 2019
Temperature: 31.0°C (88°F)
Dewpoint: 12.0°C (54°F) [RH = 31%]
Pressure (altimeter): 29.68 inches Hg (1005.0 mb)
Winds: from the N (360 degrees) at 24 MPH (21 knots; 10.8 m/s)
Visibility: 6 or more miles (10+ km)
Ceiling: ceiling and visibility are OK
Clouds: unknown
Weather: no significant weather observed at this time

METAR text: YMML 230400Z 34020KT CAVOK 30/12 Q1005 FM0600 35014KT 9999 FEW045
Conditions at: YMML (MELBOURNE INTL A, AU) observed 0400 UTC 23 March 2019
Temperature: 30.0°C (86°F)
Dewpoint: 12.0°C (54°F) [RH = 33%]
Pressure (altimeter): 29.68 inches Hg (1005.0 mb)
Winds: from the NNW (340 degrees) at 23 MPH (20 knots; 10.3 m/s)
Visibility: 6 or more miles (10+ km)
Ceiling: ceiling and visibility are OK
Clouds: unknown
Weather: no significant weather observed at this time

METAR text: YMML 230330Z 35023KT CAVOK 30/12 Q1005 FM0600 35014KT 9999 FEW045
Conditions at: YMML (MELBOURNE INTL A, AU) observed 0330 UTC 23 March 2019
Temperature: 30.0°C (86°F)
Dewpoint: 12.0°C (54°F) [RH = 33%]
Pressure (altimeter): 29.68 inches Hg (1005.0 mb)
Winds: from the N (350 degrees) at 26 MPH (23 knots; 11.8 m/s)
Visibility: 6 or more miles (10+ km)
Ceiling: ceiling and visibility are OK
Clouds: unknown
Weather: no significant weather observed at this time

METAR text: YMML 230306Z 35022G32KT CAVOK 29/12 Q1005
Conditions at: YMML (MELBOURNE INTL A, AU) observed 0306 UTC 23 March 2019
Temperature: 29.0°C (84°F)
Dewpoint: 12.0°C (54°F) [RH = 35%]
Pressure (altimeter): 29.68 inches Hg (1005.0 mb)
Winds: from the N (350 degrees) at 25 MPH (22 knots; 11.3 m/s)
gusting to 37 MPH (32 knots; 16.5 m/s)
Visibility: 6 or more miles (10+ km)
Ceiling: ceiling and visibility are OK
Clouds: unknown
Weather: no significant weather observed at this time

METAR text: YMML 230300Z 35022KT CAVOK 29/12 Q1005
Conditions at: YMML (MELBOURNE INTL A, AU) observed 0300 UTC 23 March 2019
Temperature: 29.0°C (84°F)
Dewpoint: 12.0°C (54°F) [RH = 35%]
Pressure (altimeter): 29.68 inches Hg (1005.0 mb)
Winds: from the N (350 degrees) at 25 MPH (22 knots; 11.3 m/s)
Visibility: 6 or more miles (10+ km)
Ceiling: ceiling and visibility are OK
Clouds: unknown
Weather: no significant weather observed at this time

METAR text: YMML 230230Z 36022KT CAVOK 29/12 Q1006 FM0230 MOD TURB BLW 5000FT TILL 0300
Conditions at: YMML (MELBOURNE INTL A, AU) observed 0230 UTC 23 March 2019
Temperature: 29.0°C (84°F)
Dewpoint: 12.0°C (54°F) [RH = 35%]
Pressure (altimeter): 29.70 inches Hg (1006.0 mb)
Winds: from the N (360 degrees) at 25 MPH (22 knots; 11.3 m/s)
Visibility: 6 or more miles (10+ km)
Ceiling: ceiling and visibility are OK
Clouds: unknown
Weather: no significant weather observed at this time

METAR text: YMML 230200Z 36021KT CAVOK 28/12 Q1006 FM0200 MOD TURB BLW 5000FT TILL 0300
Conditions at: YMML (MELBOURNE INTL A, AU) observed 0200 UTC 23 March 2019
Temperature: 28.0°C (82°F)
Dewpoint: 12.0°C (54°F) [RH = 37%]
Pressure (altimeter): 29.70 inches Hg (1006.0 mb)
Winds: from the N (360 degrees) at 24 MPH (21 knots; 10.8 m/s)
Visibility: 6 or more miles (10+ km)
Ceiling: ceiling and visibility are OK
Clouds: unknown
Weather: no significant weather observed at this time

METAR text: YMML 230130Z 01016KT CAVOK 27/13 Q1006 FM0130 MOD TURB BLW 5000FT TILL 0300
Conditions at: YMML (MELBOURNE INTL A, AU) observed 0130 UTC 23 March 2019
Temperature: 27.0°C (81°F)
Dewpoint: 13.0°C (55°F) [RH = 42%]
Pressure (altimeter): 29.70 inches Hg (1006.0 mb)
Winds: from the N (10 degrees) at 18 MPH (16 knots; 8.2 m/s)
Visibility: 6 or more miles (10+ km)
Ceiling: ceiling and visibility are OK
Clouds: unknown
Weather: no significant weather observed at this time

METAR text: YMML 230100Z 05011KT CAVOK 26/16 Q1007 FM0200 36018G28KT CAVOK FM0100 MOD TURB BLW 5000FT TILL 0300
Conditions at: YMML (MELBOURNE INTL A, AU) observed 0100 UTC 23 March 2019
Temperature: 26.0°C (79°F)
Dewpoint: 16.0°C (61°F) [RH = 54%]
Pressure (altimeter): 29.73 inches Hg (1007.0 mb)
Winds: from the NE (50 degrees) at 13 MPH (11 knots; 5.7 m/s)
Visibility: 6 or more miles (10+ km)
Ceiling: ceiling and visibility are OK
Clouds: unknown
Weather: no significant weather observed at this time

METAR text: YMML 230030Z 07009KT 9999 VCSH FEW035 BKN093 21/17 Q1008 FM0200 36018G28KT CAVOK FM0030 MOD TURB BLW 5000FT TILL 0300
Conditions at: YMML (MELBOURNE INTL A, AU) observed 0030 UTC 23 March 2019
Temperature: 21.0°C (70°F)
Dewpoint: 17.0°C (63°F) [RH = 78%]
Pressure (altimeter): 29.76 inches Hg (1008.0 mb)
Winds: from the ENE (70 degrees) at 10 MPH (9 knots; 4.6 m/s)
Visibility: 6 or more miles (10+ km)
Ceiling: 9300 feet AGL
Clouds: few clouds at 3500 feet AGL
broken clouds at 9300 feet AGL
Weather: VCSH  (showers in vicinity)

METAR text: YMML 230000Z 06008KT 9999 -SHRA SCT033 BKN043 20/17 Q1009 FM0200 36018G28KT CAVOK FM0000 MOD TURB BLW 5000FT
Conditions at: YMML (MELBOURNE INTL A, AU) observed 0000 UTC 23 March 2019
Temperature: 20.0°C (68°F)
Dewpoint: 17.0°C (63°F) [RH = 83%]
Pressure (altimeter): 29.79 inches Hg (1009.0 mb)
Winds: from the ENE (60 degrees) at 9 MPH (8 knots; 4.1 m/s)
Visibility: 6 or more miles (10+ km)
Ceiling: 4300 feet AGL
Clouds: scattered clouds at 3300 feet AGL
broken clouds at 4300 feet AGL
Weather: -SHRA  (light rain showers)

METAR text: YMML 222330Z 05006KT 9999 -SHRA NSC 19/16 Q1010 FM2330 MOD TURB BLW 5000FT
Conditions at: YMML (MELBOURNE INTL A, AU) observed 2330 UTC 22 March 2019
Temperature: 19.0°C (66°F)
Dewpoint: 16.0°C (61°F) [RH = 83%]
Pressure (altimeter): 29.82 inches Hg (1010.0 mb)
Winds: from the NE (50 degrees) at 7 MPH (6 knots; 3.1 m/s)
Visibility: 6 or more miles (10+ km)
Ceiling: at least 12,000 feet AGL
Clouds: sky clear below 12,000 feet AGL
Weather: -SHRA  (light rain showers)

METAR text: YMML 222300Z 36011KT 9999 -SHRA NSC 19/16 Q1010 FM2300 MOD TURB BLW 5000FT
Conditions at: YMML (MELBOURNE INTL A, AU) observed 2300 UTC 22 March 2019
Temperature: 19.0°C (66°F)
Dewpoint: 16.0°C (61°F) [RH = 83%]
Pressure (altimeter): 29.82 inches Hg (1010.0 mb)
Winds: from the N (360 degrees) at 13 MPH (11 knots; 5.7 m/s)
Visibility: 6 or more miles (10+ km)
Ceiling: at least 12,000 feet AGL
Clouds: sky clear below 12,000 feet AGL
Weather: -SHRA  (light rain showers)

METAR text: YMML 222230Z 02019KT 9999 -SHRA NSC 19/16 Q1009 FM2230 MOD TURB BLW 5000FT
Conditions at: YMML (MELBOURNE INTL A, AU) observed 2230 UTC 22 March 2019
Temperature: 19.0°C (66°F)
Dewpoint: 16.0°C (61°F) [RH = 83%]
Pressure (altimeter): 29.79 inches Hg (1009.0 mb)
Winds: from the NNE (20 degrees) at 22 MPH (19 knots; 9.8 m/s)
Visibility: 6 or more miles (10+ km)
Ceiling: at least 12,000 feet AGL
Clouds: sky clear below 12,000 feet AGL
Weather: -SHRA  (light rain showers)

METAR text: YMML 222202Z 36017G29KT 9999 -SHRA NSC 20/15 Q1009 FM2202 MOD TURB BLW 5000FT
Conditions at: YMML (MELBOURNE INTL A, AU) observed 2202 UTC 22 March 2019
Temperature: 20.0°C (68°F)
Dewpoint: 15.0°C (59°F) [RH = 73%]
Pressure (altimeter): 29.79 inches Hg (1009.0 mb)
Winds: from the N (360 degrees) at 20 MPH (17 knots; 8.7 m/s)
gusting to 33 MPH (29 knots; 14.9 m/s)
Visibility: 6 or more miles (10+ km)
Ceiling: at least 12,000 feet AGL
Clouds: sky clear below 12,000 feet AGL
Weather: -SHRA  (light rain showers)

METAR text: YMML 222200Z 36016KT 9999 -SHRA NSC 20/15 Q1009 FM2200 MOD TURB BLW 5000FT
Conditions at: YMML (MELBOURNE INTL A, AU) observed 2200 UTC 22 March 2019
Temperature: 20.0°C (68°F)
Dewpoint: 15.0°C (59°F) [RH = 73%]
Pressure (altimeter): 29.79 inches Hg (1009.0 mb)
Winds: from the N (360 degrees) at 18 MPH (16 knots; 8.2 m/s)
Visibility: 6 or more miles (10+ km)
Ceiling: at least 12,000 feet AGL
Clouds: sky clear below 12,000 feet AGL
Weather: -SHRA  (light rain showers)

METAR text: YMML 222130Z 03013KT CAVOK 22/13 Q1009 FM2130 MOD TURB BLW 5000FT
Conditions at: YMML (MELBOURNE INTL A, AU) observed 2130 UTC 22 March 2019
Temperature: 22.0°C (72°F)
Dewpoint: 13.0°C (55°F) [RH = 57%]
Pressure (altimeter): 29.79 inches Hg (1009.0 mb)
Winds: from the NNE (30 degrees) at 15 MPH (13 knots; 6.7 m/s)
Visibility: 6 or more miles (10+ km)
Ceiling: ceiling and visibility are OK
Clouds: unknown
Weather: no significant weather observed at this time

METAR text: YMML 222124Z 03016G26KT 9999 VCSH NSC 22/13 Q1009 FM2124 MOD TURB BLW 5000FT
Conditions at: YMML (MELBOURNE INTL A, AU) observed 2124 UTC 22 March 2019
Temperature: 22.0°C (72°F)
Dewpoint: 13.0°C (55°F) [RH = 57%]
Pressure (altimeter): 29.79 inches Hg (1009.0 mb)
Winds: from the NNE (30 degrees) at 18 MPH (16 knots; 8.2 m/s)
gusting to 30 MPH (26 knots; 13.4 m/s)
Visibility: 6 or more miles (10+ km)
Ceiling: at least 12,000 feet AGL
Clouds: sky clear below 12,000 feet AGL
Weather: VCSH  (showers in vicinity)

METAR text: YMML 222100Z 01013KT CAVOK 22/13 Q1010 FM2100 MOD TURB BLW 5000FT
Conditions at: YMML (MELBOURNE INTL A, AU) observed 2100 UTC 22 March 2019
Temperature: 22.0°C (72°F)
Dewpoint: 13.0°C (55°F) [RH = 57%]
Pressure (altimeter): 29.82 inches Hg (1010.0 mb)
Winds: from the N (10 degrees) at 15 MPH (13 knots; 6.7 m/s)
Visibility: 6 or more miles (10+ km)
Ceiling: ceiling and visibility are OK
Clouds: unknown
Weather: no significant weather observed at this time

Forecast for: AMD
Text: TAF AMD YMML 240519Z 2406/2512 35022G35KT CAVOK
Forecast period: 0600 to 1200 UTC 24 March 2019
Forecast type: FROM: standard forecast or significant change
Winds: from the N (350 degrees) at 25 MPH (22 knots; 11.3 m/s)
gusting to 40 MPH (35 knots; 18.0 m/s)
Visibility: 6 or more miles 10+ km)
Ceiling: unknown
Clouds: missing
Weather: NSW  (no significant weather)
Text: FM241200 32015G25KT 9999 FEW030 BKN060
Forecast period: 1200 to 1700 UTC 24 March 2019
Forecast type: FROM: standard forecast or significant change
Winds: from the NW (320 degrees) at 17 MPH (15 knots; 7.7 m/s)
gusting to 29 MPH (25 knots; 12.9 m/s)
Visibility: 6 or more miles 10+ km)
Ceiling: 6000 feet AGL
Clouds: few clouds at 3000 feet AGL
broken clouds at 6000 feet AGL
Weather: no significant weather forecast for this period
Text: FM241700 29015G25KT CAVOK
Forecast period: 1700 to 2300 UTC 24 March 2019
Forecast type: FROM: standard forecast or significant change
Winds: from the WNW (290 degrees) at 17 MPH (15 knots; 7.7 m/s)
gusting to 29 MPH (25 knots; 12.9 m/s)
Visibility: 6 or more miles 10+ km)
Ceiling: unknown
Clouds: missing
Weather: NSW  (no significant weather)
Text: FM242300 28020G34KT 9999 -SHRA NSC
Forecast period: 2300 UTC 24 March 2019 to 1000 UTC 25 March 2019
Forecast type: FROM: standard forecast or significant change
Winds: from the W (280 degrees) at 23 MPH (20 knots; 10.3 m/s)
gusting to 39 MPH (34 knots; 17.5 m/s)
Visibility: 6 or more miles 10+ km)
Ceiling: unknown
Clouds: missing
Weather: -SHRA  (light rain showers)
Text: FM251000 28012KT CAVOK
Forecast period: 1000 to 1200 UTC 25 March 2019
Forecast type: FROM: standard forecast or significant change
Winds: from the W (280 degrees) at 14 MPH (12 knots; 6.2 m/s)
Visibility: 6 or more miles 10+ km)
Ceiling: unknown
Clouds: missing
Weather: NSW  (no significant weather)
Text: PROB30 INTER 2408/2414 VRB30G48KT 3000 TSRA BKN018 FEW050CB
Forecast period: 0800 to 1400 UTC 24 March 2019
Forecast type: TEMPORARY: The following changes expected for less than half the time period
Winds: variable direction winds at 34 MPH (30 knots; 15.4 m/s)
gusting to 55 MPH (48 knots; 24.7 m/s)
Visibility: 1.86 miles (2.99 km)
Ceiling: 1800 feet AGL
Clouds: broken clouds at 1800 feet AGL
few clouds at 5000 feet AGL
Weather: TSRA  (rain associated with thunderstorm(s))